createdAt,value
2024-03-16T00:01:40.007Z,99980.94
2024-03-16T00:04:09.298Z,99978.66
2024-03-16T00:06:38.822Z,99982.34
2024-03-16T00:09:09.113Z,99982.30
2024-03-16T00:11:38.244Z,99983.78
2024-03-16T00:14:07.446Z,99985.17
2024-03-16T00:16:36.595Z,99983.27
2024-03-16T00:19:05.448Z,99985.63
2024-03-16T00:21:34.755Z,99985.45
2024-03-16T00:24:03.922Z,99989.59
2024-03-16T00:26:32.907Z,99987.98
2024-03-16T00:29:01.849Z,99989.25
2024-03-16T00:31:30.861Z,99990.47
2024-03-16T00:33:59.598Z,99987.06
2024-03-16T00:36:28.564Z,99989.16
2024-03-16T00:38:58.344Z,99989.17
2024-03-16T00:41:27.784Z,99991.89
2024-03-16T00:43:56.853Z,99992.98
2024-03-16T00:46:26.209Z,99991.03
2024-03-16T00:48:55.107Z,99991.71
2024-03-16T00:51:24.305Z,99990.75
2024-03-16T00:53:53.119Z,99992.17
2024-03-16T00:56:22.343Z,99993.49
2024-03-16T00:58:51.624Z,99984.90
2024-03-16T01:01:21.221Z,99983.34
2024-03-16T01:03:50.468Z,99979.56
2024-03-16T01:06:19.539Z,99977.55
2024-03-16T01:08:48.414Z,99977.48
2024-03-16T01:11:17.253Z,99976.70
2024-03-16T01:13:46.498Z,99974.41
2024-03-16T01:16:15.823Z,99969.84
2024-03-16T01:18:45.369Z,99966.13
2024-03-16T01:21:14.199Z,99963.09
2024-03-16T01:23:43.391Z,99964.90
2024-03-16T01:26:12.389Z,99961.08
2024-03-16T01:28:41.677Z,99957.02
2024-03-16T01:31:12.644Z,99953.35
2024-03-16T01:33:43.402Z,99952.12
2024-03-16T01:36:12.756Z,99950.52
2024-03-16T01:38:41.976Z,99952.36
2024-03-16T01:41:11.942Z,99950.42
2024-03-16T01:43:40.871Z,99950.91
2024-03-16T01:46:10.708Z,99952.14
2024-03-16T01:48:39.904Z,99953.55
2024-03-16T01:51:08.888Z,99948.89
2024-03-16T01:53:39.483Z,99944.67
2024-03-16T01:56:08.396Z,99944.80
2024-03-16T01:58:42.350Z,99943.52
2024-03-16T02:01:11.279Z,99943.94
2024-03-16T02:03:42.048Z,99947.88
2024-03-16T02:06:11.206Z,99946.26
2024-03-16T02:08:40.709Z,99949.78
2024-03-16T02:11:09.664Z,99945.80
2024-03-16T02:13:38.692Z,99944.27
2024-03-16T02:16:07.657Z,99941.55
2024-03-16T02:18:36.742Z,99941.30
2024-03-16T02:21:13.278Z,99942.42
2024-03-16T02:23:42.242Z,99940.21
2024-03-16T02:26:12.710Z,99932.81
2024-03-16T02:28:42.172Z,99930.73
2024-03-16T02:31:11.354Z,99929.30
2024-03-16T02:33:40.230Z,99929.01
2024-03-16T02:36:09.397Z,99934.86
2024-03-16T02:38:41.843Z,99936.17
2024-03-16T02:41:10.750Z,99937.21
2024-03-16T02:43:39.935Z,99942.17
2024-03-16T02:46:08.878Z,99943.00
2024-03-16T02:48:37.734Z,99945.89
2024-03-16T02:51:07.677Z,99947.55
2024-03-16T02:53:36.461Z,99950.96
2024-03-16T02:56:05.691Z,99952.45
2024-03-16T02:58:34.510Z,99956.83
2024-03-16T03:01:03.872Z,99961.40
2024-03-16T03:03:32.906Z,99962.63
2024-03-16T03:06:02.142Z,99966.45
2024-03-16T03:08:33.429Z,99966.80
2024-03-16T03:11:05.156Z,99963.38
2024-03-16T03:13:34.267Z,99964.89
2024-03-16T03:16:03.659Z,99964.11
2024-03-16T03:18:32.567Z,99966.02
2024-03-16T03:21:01.890Z,99962.16
2024-03-16T03:23:30.797Z,99963.08
2024-03-16T03:26:00.364Z,99963.73
2024-03-16T03:28:29.216Z,99963.87
2024-03-16T03:30:58.438Z,99965.02
2024-03-16T03:33:27.347Z,99965.67
2024-03-16T03:35:56.613Z,99964.77
2024-03-16T03:38:25.626Z,99964.57
2024-03-16T03:40:54.458Z,99965.62
2024-03-16T03:43:24.031Z,99969.91
2024-03-16T03:45:53.494Z,99970.60
2024-03-16T03:48:37.319Z,99971.80
2024-03-16T03:51:06.689Z,99972.48
2024-03-16T03:53:35.468Z,99974.73
2024-03-16T03:56:04.761Z,99976.92
2024-03-16T03:58:33.645Z,99977.56
2024-03-16T04:01:02.903Z,99980.10
2024-03-16T04:03:32.059Z,99983.13
2024-03-16T04:06:01.235Z,99981.33
2024-03-16T04:08:30.125Z,99984.44
2024-03-16T04:10:59.034Z,99984.05
2024-03-16T04:13:28.155Z,99984.02
2024-03-16T04:15:57.203Z,99984.23
2024-03-16T04:18:26.071Z,99984.66
2024-03-16T04:20:55.088Z,99987.16
2024-03-16T04:23:23.877Z,99987.52
2024-03-16T04:25:52.762Z,99988.23
2024-03-16T04:28:21.865Z,99985.36
2024-03-16T04:30:50.968Z,99987.25
2024-03-16T04:33:20.051Z,99988.28
2024-03-16T04:35:48.990Z,99988.49
2024-03-16T04:38:18.749Z,99989.30
2024-03-16T04:40:47.854Z,99988.81
2024-03-16T04:43:17.662Z,99990.50
2024-03-16T04:45:49.398Z,99988.69
2024-03-16T04:48:18.391Z,99990.17
2024-03-16T04:50:49.211Z,99994.83
2024-03-16T04:53:18.026Z,99995.70
2024-03-16T04:55:46.952Z,100000.23
2024-03-16T04:58:15.796Z,99999.70
2024-03-16T05:00:44.614Z,99997.75
2024-03-16T05:03:14.113Z,99997.38
2024-03-16T05:05:43.373Z,100000.89
2024-03-16T05:08:13.304Z,100001.85
2024-03-16T05:10:42.225Z,99999.88
2024-03-16T05:13:10.994Z,100004.88
2024-03-16T05:15:39.987Z,100003.38
2024-03-16T05:18:09.124Z,100007.41
2024-03-16T05:20:38.074Z,100005.28
2024-03-16T05:23:06.824Z,100004.04
2024-03-16T05:25:36.049Z,100004.32
2024-03-16T05:28:05.494Z,100007.11
2024-03-16T05:30:34.344Z,100007.10
2024-03-16T05:33:03.838Z,100010.71
2024-03-16T05:35:33.060Z,100010.39
2024-03-16T05:38:01.988Z,100006.34
2024-03-16T05:40:30.884Z,100007.13
2024-03-16T05:42:59.889Z,100009.18
2024-03-16T05:45:28.837Z,100012.67
2024-03-16T05:47:57.770Z,100010.77
2024-03-16T05:50:26.903Z,100014.57
2024-03-16T05:52:55.520Z,100014.09
2024-03-16T05:55:24.321Z,100016.54
2024-03-16T05:57:53.255Z,100016.91
2024-03-16T06:00:24.110Z,100016.16
2024-03-16T06:02:53.099Z,100016.89
2024-03-16T06:05:21.982Z,100015.86
2024-03-16T06:07:50.770Z,100015.79
2024-03-16T06:10:19.889Z,100020.39
2024-03-16T06:12:48.892Z,100023.52
2024-03-16T06:15:17.644Z,100025.55
2024-03-16T06:17:47.471Z,100025.63
2024-03-16T06:20:18.126Z,100030.62
2024-03-16T06:22:47.074Z,100033.66
2024-03-16T06:25:16.113Z,100037.08
2024-03-16T06:27:50.540Z,100033.70
2024-03-16T06:30:22.967Z,100039.05
2024-03-16T06:33:07.354Z,100039.83
2024-03-16T06:35:43.197Z,100038.14
2024-03-16T06:38:12.262Z,100041.52
2024-03-16T06:40:41.184Z,100041.08
2024-03-16T06:43:10.216Z,100046.23
2024-03-16T06:45:39.902Z,100047.36
2024-03-16T06:48:08.799Z,100048.13
2024-03-16T06:50:37.936Z,100052.00
2024-03-16T06:53:07.796Z,100058.15
2024-03-16T06:55:37.092Z,100061.21
2024-03-16T06:58:05.990Z,100070.89
2024-03-16T07:00:37.233Z,100077.02
2024-03-16T07:03:07.025Z,100078.96
2024-03-16T07:05:36.026Z,100084.15
2024-03-16T07:08:05.491Z,100087.66
2024-03-16T07:10:34.224Z,100089.90
2024-03-16T07:13:03.051Z,100091.67
2024-03-16T07:15:35.841Z,100088.15
2024-03-16T07:18:05.321Z,100090.05
2024-03-16T07:20:35.163Z,100092.95
2024-03-16T07:23:04.208Z,100090.71
2024-03-16T07:25:33.043Z,100092.88
2024-03-16T07:28:02.157Z,100099.70
2024-03-16T07:30:31.126Z,100094.43
2024-03-16T07:32:59.845Z,100098.79
2024-03-16T07:35:29.389Z,100100.65
2024-03-16T07:37:58.531Z,100102.67
2024-03-16T07:40:27.223Z,100103.77
2024-03-16T07:42:57.093Z,100103.63
2024-03-16T07:45:25.956Z,100103.34
2024-03-16T07:47:54.516Z,100101.50
2024-03-16T07:50:23.428Z,100092.71
2024-03-16T07:52:52.381Z,100093.76
2024-03-16T07:55:21.054Z,100094.52
2024-03-16T07:57:50.207Z,100087.91
2024-03-16T08:00:19.263Z,100088.74
2024-03-16T08:02:48.047Z,100085.50
2024-03-16T08:05:16.802Z,100089.96
2024-03-16T08:07:45.642Z,100094.19
2024-03-16T08:10:15.027Z,100094.08
2024-03-16T08:12:45.814Z,100099.01
2024-03-16T08:15:14.584Z,100100.61
2024-03-16T08:17:43.260Z,100102.65
2024-03-16T08:20:16.296Z,100108.59
2024-03-16T08:22:49.480Z,100106.41
2024-03-16T08:25:18.741Z,100106.41
2024-03-16T08:27:47.843Z,100110.08
2024-03-16T08:30:16.602Z,100106.36
2024-03-16T08:32:45.326Z,100107.42
2024-03-16T08:35:14.049Z,100112.15
2024-03-16T08:37:42.966Z,100110.31
2024-03-16T08:40:15.026Z,100108.44
2024-03-16T08:42:43.930Z,100108.52
2024-03-16T08:45:12.784Z,100107.40
2024-03-16T08:47:42.762Z,100107.86
2024-03-16T08:50:12.109Z,100108.41
2024-03-16T08:52:41.086Z,100109.81
2024-03-16T08:55:14.802Z,100105.08
2024-03-16T08:57:43.700Z,100102.44
2024-03-16T09:00:15.927Z,100100.27
2024-03-16T09:02:44.813Z,100098.73
2024-03-16T09:05:13.969Z,100101.44
2024-03-16T09:07:42.938Z,100099.97
2024-03-16T09:10:14.805Z,100095.31
2024-03-16T09:12:44.393Z,100099.63
2024-03-16T09:15:12.958Z,100098.77
2024-03-16T09:17:41.804Z,100097.27
2024-03-16T09:20:12.163Z,100096.39
2024-03-16T09:22:41.627Z,100097.42
2024-03-16T09:25:10.777Z,100096.91
2024-03-16T09:27:39.649Z,100095.46
2024-03-16T09:30:09.985Z,100095.69
2024-03-16T09:32:38.961Z,100099.11
2024-03-16T09:35:12.304Z,100098.05
2024-03-16T09:37:41.151Z,100095.95
2024-03-16T09:40:12.071Z,100095.88
2024-03-16T09:42:41.268Z,100094.88
2024-03-16T09:45:19.497Z,100089.83
2024-03-16T09:47:51.162Z,100095.45
2024-03-16T09:50:23.080Z,100092.83
2024-03-16T09:56:48.086Z,100098.79
2024-03-16T09:59:29.750Z,100095.17
2024-03-16T10:02:01.187Z,100096.24
2024-03-16T10:04:29.860Z,100098.65
2024-03-16T10:06:58.603Z,100093.65
2024-03-16T10:09:28.821Z,100099.00
2024-03-16T10:12:12.846Z,100099.80
2024-03-16T10:14:41.673Z,100098.60
2024-03-16T10:17:10.262Z,100100.17
2024-03-16T10:19:38.956Z,100103.52
2024-03-16T10:22:08.023Z,100100.27
2024-03-16T10:24:38.406Z,100102.56
2024-03-16T10:27:12.837Z,100106.27
2024-03-16T10:29:41.614Z,100105.61
2024-03-16T10:32:10.604Z,100105.23
2024-03-16T10:34:39.254Z,100101.55
2024-03-16T10:37:09.384Z,100100.98
2024-03-16T10:39:41.032Z,100103.89
2024-03-16T10:42:16.660Z,100100.72
2024-03-16T10:44:47.514Z,100100.41
2024-03-16T10:47:16.274Z,100100.14
2024-03-16T10:49:45.019Z,100098.19
2024-03-16T10:52:13.717Z,100099.19
2024-03-16T10:54:42.517Z,100100.39
2024-03-16T10:57:11.417Z,100098.20
2024-03-16T10:59:44.832Z,100098.46
2024-03-16T11:02:14.960Z,100100.79
2024-03-16T11:04:53.036Z,100100.33
2024-03-16T11:07:21.831Z,100102.92
2024-03-16T11:09:52.479Z,100104.25
2024-03-16T11:12:34.367Z,100106.70
2024-03-16T11:15:34.284Z,100108.02
2024-03-16T11:18:27.310Z,100105.75
2024-03-16T11:20:59.024Z,100106.82
2024-03-16T11:23:31.068Z,100105.97
2024-03-16T11:26:29.496Z,100102.64
2024-03-16T11:29:01.328Z,100102.81
2024-03-16T11:31:50.214Z,100105.10
2024-03-16T11:34:23.565Z,100102.91
2024-03-16T11:36:57.956Z,100099.91
2024-03-16T11:39:28.509Z,100100.86
2024-03-16T11:42:00.607Z,100100.95
2024-03-16T11:44:29.636Z,100097.26
2024-03-16T11:46:59.019Z,100101.80
2024-03-16T11:49:27.663Z,100099.15
2024-03-16T11:51:56.407Z,100099.11
2024-03-16T11:54:26.316Z,100098.36
2024-03-16T11:56:58.626Z,100095.04
2024-03-16T11:59:27.629Z,100093.69
2024-03-16T12:01:57.692Z,100093.02
2024-03-16T12:04:28.575Z,100092.06
2024-03-16T12:07:00.427Z,100091.88
2024-03-16T12:09:34.789Z,100087.02
2024-03-16T12:12:08.964Z,100085.92
2024-03-16T12:14:43.210Z,100088.45
2024-03-16T12:17:16.317Z,100086.00
2024-03-16T12:19:44.936Z,100084.64
2024-03-16T12:22:16.640Z,100085.42
2024-03-16T12:24:46.700Z,100083.78
2024-03-16T12:27:17.850Z,100082.26
2024-03-16T12:29:46.619Z,100082.84
2024-03-16T12:32:15.337Z,100081.23
2024-03-16T12:34:44.094Z,100076.15
2024-03-16T12:37:12.718Z,100078.95
2024-03-16T12:39:42.096Z,100078.31
2024-03-16T12:42:10.921Z,100072.44
2024-03-16T12:44:39.550Z,100072.76
2024-03-16T12:47:08.246Z,100070.24
2024-03-16T12:49:38.134Z,100068.57
2024-03-16T12:52:12.062Z,100065.02
2024-03-16T12:54:41.646Z,100062.71
2024-03-16T12:57:10.690Z,100063.45
2024-03-16T12:59:39.534Z,100065.33
2024-03-16T13:02:09.235Z,100061.79
2024-03-16T13:04:38.196Z,100061.00
2024-03-16T13:07:06.849Z,100058.01
2024-03-16T13:09:36.678Z,100051.52
2024-03-16T13:12:11.878Z,100052.40
2024-03-16T13:14:41.104Z,100052.34
2024-03-16T13:17:09.832Z,100049.14
2024-03-16T13:19:40.649Z,100047.06
2024-03-16T13:22:12.310Z,100042.04
2024-03-16T13:24:41.070Z,100038.39
2024-03-16T13:27:13.108Z,100034.63
2024-03-16T13:29:41.785Z,100034.25
2024-03-16T13:32:10.770Z,100036.87
2024-03-16T13:34:39.358Z,100037.04
2024-03-16T13:37:08.119Z,100032.39
2024-03-16T13:39:38.563Z,100032.77
2024-03-16T13:42:07.356Z,100029.48
2024-03-16T13:44:39.258Z,100028.70
2024-03-16T13:47:07.966Z,100031.20
2024-03-16T13:49:38.130Z,100028.05
2024-03-16T13:52:06.858Z,100026.05
2024-03-16T13:54:35.584Z,100022.27
2024-03-16T13:57:04.573Z,100023.38
2024-03-16T13:59:34.029Z,100023.88
2024-03-16T14:02:04.015Z,100028.23
2024-03-16T14:04:33.190Z,100033.04
2024-03-16T14:07:03.226Z,100033.88
2024-03-16T14:09:35.897Z,100033.63
2024-03-16T14:12:07.131Z,100032.71
2024-03-16T14:14:35.734Z,100033.11
2024-03-16T14:17:04.415Z,100028.90
2024-03-16T14:19:35.479Z,100036.56
2024-03-16T14:22:04.679Z,100060.04
2024-03-16T14:24:33.731Z,100073.60
2024-03-16T14:27:02.466Z,100080.85
2024-03-16T14:29:31.146Z,100089.81
2024-03-16T14:31:59.883Z,100105.09
2024-03-16T14:34:28.933Z,100106.48
2024-03-16T14:36:58.163Z,100101.35
2024-03-16T14:39:28.980Z,100099.41
2024-03-16T14:41:58.482Z,100097.75
2024-03-16T14:44:28.376Z,100087.21
2024-03-16T14:46:57.117Z,100083.40
2024-03-16T14:49:25.903Z,100079.38
2024-03-16T14:51:56.299Z,100073.30
2024-03-16T14:54:25.030Z,100069.23
2024-03-16T14:56:53.663Z,100067.24
2024-03-16T14:59:22.239Z,100066.13
2024-03-16T15:01:51.637Z,100069.52
2024-03-16T15:04:21.344Z,100071.78
2024-03-16T15:06:50.014Z,100075.05
2024-03-16T15:09:18.615Z,100076.35
2024-03-16T15:11:48.060Z,100074.27
2024-03-16T15:14:19.324Z,100073.52
2024-03-16T15:16:49.362Z,100068.33
2024-03-16T15:19:17.929Z,100062.63
2024-03-16T15:21:47.747Z,100059.19
2024-03-16T15:24:22.885Z,100059.59
2024-03-16T15:26:55.986Z,100058.52
2024-03-16T15:29:24.696Z,100049.14
2024-03-16T15:31:53.306Z,100047.02
2024-03-16T15:34:21.917Z,100049.55
2024-03-16T15:36:50.750Z,100055.31
2024-03-16T15:39:19.515Z,100054.81
2024-03-16T15:41:48.206Z,100058.55
2024-03-16T15:44:19.876Z,100060.97
2024-03-16T15:46:49.089Z,100066.45
2024-03-16T15:49:17.854Z,100066.96
2024-03-16T15:51:46.521Z,100070.02
2024-03-16T15:54:15.215Z,100072.86
2024-03-16T15:56:48.214Z,100075.59
2024-03-16T15:59:16.879Z,100080.04
2024-03-16T16:01:45.768Z,100079.58
2024-03-16T16:04:14.445Z,100079.36
2024-03-16T16:06:43.361Z,100082.95
2024-03-16T16:09:13.013Z,100082.33
2024-03-16T16:11:41.802Z,100084.54
2024-03-16T16:14:10.481Z,100086.45
2024-03-16T16:16:39.545Z,100087.20
2024-03-16T16:19:08.271Z,100086.64
2024-03-16T16:21:36.918Z,100088.05
2024-03-16T16:24:05.981Z,100089.52
2024-03-16T16:26:34.704Z,100090.06
2024-03-16T16:29:03.425Z,100095.22
2024-03-16T16:31:32.539Z,100095.34
2024-03-16T16:34:01.324Z,100101.07
2024-03-16T16:36:30.186Z,100106.17
2024-03-16T16:38:58.795Z,100105.73
2024-03-16T16:41:27.553Z,100108.09
2024-03-16T16:43:56.193Z,100103.94
2024-03-16T16:46:25.574Z,100106.38
2024-03-16T16:48:54.233Z,100109.75
2024-03-16T16:51:22.878Z,100114.05
2024-03-16T16:53:51.673Z,100114.34
2024-03-16T16:56:20.252Z,100115.56
2024-03-16T16:58:49.166Z,100122.46
2024-03-16T17:01:18.171Z,100127.27
2024-03-16T17:06:17.274Z,100135.00
2024-03-16T17:08:45.964Z,100133.38
2024-03-16T17:11:19.329Z,100130.54
2024-03-16T17:13:48.118Z,100130.40
2024-03-16T17:16:19.488Z,100133.77
2024-03-16T17:18:48.136Z,100136.38
2024-03-16T17:21:16.960Z,100138.02
2024-03-16T17:23:45.677Z,100141.80
2024-03-16T17:26:17.077Z,100144.56
2024-03-16T17:28:45.718Z,100145.12
2024-03-16T17:31:14.340Z,100149.19
2024-03-16T17:33:43.045Z,100151.98
2024-03-16T17:36:11.666Z,100154.84
2024-03-16T17:38:40.533Z,100158.06
2024-03-16T17:41:09.980Z,100158.39
2024-03-16T17:43:39.365Z,100163.23
2024-03-16T17:46:08.483Z,100164.98
2024-03-16T17:48:37.548Z,100167.80
2024-03-16T17:51:06.203Z,100170.73
2024-03-16T17:53:34.884Z,100174.61
2024-03-16T17:56:03.774Z,100176.83
2024-03-16T17:58:32.560Z,100180.09
2024-03-16T18:01:02.209Z,100182.29
2024-03-16T18:03:30.908Z,100189.70
2024-03-16T18:06:00.009Z,100195.52
2024-03-16T18:08:29.301Z,100198.18
2024-03-16T18:10:57.962Z,100199.88
2024-03-16T18:13:26.650Z,100202.07
2024-03-16T18:15:56.256Z,100211.57
2024-03-16T18:18:24.939Z,100227.19
2024-03-16T18:20:53.751Z,100237.37
2024-03-16T18:23:22.482Z,100244.58
2024-03-16T18:25:51.249Z,100247.29
2024-03-16T18:28:21.051Z,100250.63
2024-03-16T18:30:49.636Z,100252.14
2024-03-16T18:33:18.904Z,100259.89
2024-03-16T18:35:49.318Z,100262.15
2024-03-16T18:38:18.057Z,100267.91
2024-03-16T18:40:47.677Z,100269.05
2024-03-16T18:43:19.662Z,100276.13
2024-03-16T18:45:48.415Z,100282.17
2024-03-16T18:48:18.943Z,100287.80
2024-03-16T18:50:47.747Z,100287.20
2024-03-16T18:53:16.754Z,100291.58
2024-03-16T18:55:46.041Z,100296.36
2024-03-16T18:58:14.764Z,100301.41
2024-03-16T19:00:44.854Z,100308.46
2024-03-16T19:03:13.846Z,100305.73
2024-03-16T19:05:43.318Z,100307.21
2024-03-16T19:08:12.037Z,100312.20
2024-03-16T19:10:40.961Z,100316.13
2024-03-16T19:13:09.837Z,100323.75
2024-03-16T19:15:38.811Z,100325.23
2024-03-16T19:18:07.580Z,100329.41
2024-03-16T19:20:36.770Z,100335.36
2024-03-16T19:23:05.694Z,100336.45
2024-03-16T19:25:35.000Z,100349.66
2024-03-16T19:28:08.279Z,100348.61
2024-03-16T19:30:37.816Z,100358.36
2024-03-16T19:33:07.474Z,100361.88
2024-03-16T19:35:36.223Z,100372.79
2024-03-16T19:38:05.300Z,100377.79
2024-03-16T19:40:34.099Z,100383.69
2024-03-16T19:43:06.260Z,100389.55
2024-03-16T19:45:35.695Z,100397.39
2024-03-16T19:48:06.800Z,100397.67
2024-03-16T19:50:35.460Z,100394.73
2024-03-16T19:53:05.571Z,100396.28
2024-03-16T19:55:34.134Z,100405.67
2024-03-16T19:58:04.196Z,100415.73
2024-03-16T20:00:33.597Z,100428.32
2024-03-16T20:03:03.281Z,100432.44
2024-03-16T20:05:32.440Z,100439.86
2024-03-16T20:08:01.171Z,100444.55
2024-03-16T20:10:31.269Z,100458.85
2024-03-16T20:13:00.032Z,100461.12
2024-03-16T20:15:28.978Z,100469.11
2024-03-16T20:17:57.667Z,100473.65
2024-03-16T20:20:26.377Z,100479.48
2024-03-16T20:22:55.005Z,100485.85
2024-03-16T20:25:23.567Z,100487.19
2024-03-16T20:27:58.493Z,100494.93
2024-03-16T20:30:27.300Z,100502.98
2024-03-16T20:32:56.948Z,100509.64
2024-03-16T20:35:26.739Z,100514.97
2024-03-16T20:37:55.519Z,100516.90
2024-03-16T20:40:24.305Z,100516.28
2024-03-16T20:42:54.211Z,100519.15
2024-03-16T20:45:22.944Z,100526.24
2024-03-16T20:47:55.210Z,100529.16
2024-03-16T20:50:26.268Z,100526.69
2024-03-16T20:52:55.544Z,100528.41
2024-03-16T20:55:24.231Z,100538.77
2024-03-16T20:57:55.722Z,100542.58
2024-03-16T21:00:25.331Z,100551.80
2024-03-16T21:02:54.134Z,100553.80
2024-03-16T21:05:24.543Z,100558.36
2024-03-16T21:07:53.310Z,100563.04
2024-03-16T21:10:21.933Z,100572.84
2024-03-16T21:12:52.969Z,100582.27
2024-03-16T21:15:21.605Z,100588.23
2024-03-16T21:17:50.616Z,100591.80
2024-03-16T21:20:20.779Z,100591.73
2024-03-16T21:22:50.781Z,100599.33
2024-03-16T21:25:20.555Z,100593.84
2024-03-16T21:27:52.882Z,100599.55
2024-03-16T21:30:21.563Z,100608.99
2024-03-16T21:32:50.305Z,100612.63
2024-03-16T21:35:26.508Z,100613.96
2024-03-16T21:37:55.438Z,100616.94
2024-03-16T21:40:25.317Z,100627.30
2024-03-16T21:42:53.989Z,100626.30
2024-03-16T21:45:25.141Z,100626.73
2024-03-16T21:47:53.945Z,100623.37
2024-03-16T21:50:22.728Z,100624.99
2024-03-16T21:52:51.583Z,100631.27
2024-03-16T21:55:21.461Z,100636.86
2024-03-16T21:57:51.424Z,100637.34
2024-03-16T22:00:21.373Z,100636.66
2024-03-16T22:02:50.163Z,100638.68
2024-03-16T22:05:19.043Z,100641.82
2024-03-16T22:07:48.152Z,100643.13
2024-03-16T22:10:19.573Z,100649.14
2024-03-16T22:12:54.364Z,100649.75
2024-03-16T22:15:23.119Z,100651.13
2024-03-16T22:17:52.572Z,100651.45
2024-03-16T22:20:21.448Z,100648.60
2024-03-16T22:22:51.453Z,100650.84
2024-03-16T22:25:21.117Z,100653.46
2024-03-16T22:27:50.203Z,100654.84
2024-03-16T22:30:19.686Z,100653.61
2024-03-16T22:32:49.701Z,100658.00
2024-03-16T22:35:18.490Z,100658.55
2024-03-16T22:37:47.104Z,100661.91
2024-03-16T22:40:16.785Z,100663.31
2024-03-16T22:42:46.133Z,100660.91
2024-03-16T22:45:19.513Z,100666.08
2024-03-16T22:47:48.314Z,100664.40
2024-03-16T22:50:16.991Z,100664.27
2024-03-16T22:52:46.798Z,100668.11
2024-03-16T22:55:15.452Z,100669.88
2024-03-16T22:57:44.200Z,100675.41
2024-03-16T23:00:20.505Z,100677.59
2024-03-16T23:02:49.385Z,100680.58
2024-03-16T23:05:18.097Z,100683.23
2024-03-16T23:07:46.780Z,100682.48
2024-03-16T23:10:17.737Z,100685.64
2024-03-16T23:12:46.917Z,100688.41
2024-03-16T23:15:16.361Z,100684.65
2024-03-16T23:17:45.222Z,100686.96
2024-03-16T23:20:15.744Z,100690.92
2024-03-16T23:22:45.110Z,100694.56
2024-03-16T23:25:14.051Z,100698.55
2024-03-16T23:27:42.913Z,100698.58
2024-03-16T23:30:12.879Z,100698.49
2024-03-16T23:32:47.101Z,100698.52
2024-03-16T23:35:16.169Z,100703.52
2024-03-16T23:37:44.856Z,100703.23
2024-03-16T23:40:15.577Z,100705.31
2024-03-16T23:42:50.314Z,100706.66
2024-03-16T23:45:18.875Z,100711.96
2024-03-16T23:47:47.680Z,100713.63
2024-03-16T23:50:17.361Z,100712.75
2024-03-16T23:52:46.159Z,100713.05
2024-03-16T23:55:15.661Z,100714.20
2024-03-16T23:57:44.374Z,100711.98
